Observation data for Goodlett on 05/15/2018      Previous  Date  Next       Current Mesonet Observations  Soil Data  Daily Summary Page  Observations in Plain Language
KGDS 150500Z 09008KT 19/15 A2988 RMK A01 T01860148  RH  080%=      5-min Rain = 0
KGDS 150505Z 08008KT 19/15 A2988 RMK A01 T01850148  RH  081%=      5-min Rain = 0
KGDS 150510Z 09008KT 19/15 A2989 RMK A01 T01850147  RH  081%=      5-min Rain = 0
KGDS 150515Z 09007KT 18/15 A2989 RMK A01 T01840147  RH  081%=      5-min Rain = 0
KGDS 150520Z 09005KT 18/15 A2989 RMK A01 T01840146  RH  080%=      5-min Rain = 0
KGDS 150525Z 10005KT 18/15 A2989 RMK A01 T01840146  RH  080%=      5-min Rain = 0
KGDS 150530Z 11005KT 18/15 A2989 RMK A01 T01840146  RH  080%=      5-min Rain = 0
KGDS 150535Z 10005KT 18/15 A299 RMK A01 T01840146  RH  081%=      5-min Rain = 0
KGDS 150540Z 09005KT 18/15 A299 RMK A01 T01840147  RH  081%=      5-min Rain = 0
KGDS 150545Z 10004KT 18/15 A2991 RMK A01 T01840146  RH  080%=      5-min Rain = 0
KGDS 150550Z 14004KT 18/15 A2991 RMK A01 T01840147  RH  081%=      5-min Rain = 0
KGDS 150555Z 14005KT 18/15 A2991 RMK A01 T01830148  RH  081%=      5-min Rain = 0
KGDS 150600Z 17005KT 18/15 A299 RMK A01 T01830149  RH  082%=      5-min Rain = 0
KGDS 150605Z 21004KT 18/15 A299 RMK A01 T01820151  RH  084%=      5-min Rain = 0
KGDS 150610Z 21004KT 18/15 A299 RMK A01 T01810150  RH  084%=      5-min Rain = 0
KGDS 150615Z 20004KT 18/15 A299 RMK A01 T01800150  RH  084%=      5-min Rain = 0
KGDS 150620Z 19004KT 18/15 A299 RMK A01 T01800151  RH  085%=      5-min Rain = 0
KGDS 150625Z 19006KT 18/15 A299 RMK A01 T01800151  RH  085%=      5-min Rain = 0
KGDS 150630Z 19006KT 18/15 A299 RMK A01 T01790151  RH  086%=      5-min Rain = 0
KGDS 150635Z 20005KT 18/15 A299 RMK A01 T01790151  RH  086%=      5-min Rain = 0
KGDS 150640Z 20005KT 18/15 A299 RMK A01 T01790151  RH  086%=      5-min Rain = 0
KGDS 150645Z 18005KT 18/15 A2989 RMK A01 T01770150  RH  086%=      5-min Rain = 0
KGDS 150650Z 18004KT 18/15 A299 RMK A01 T01780151  RH  086%=      5-min Rain = 0
KGDS 150655Z 19004KT 18/15 A299 RMK A01 T01770151  RH  087%=      5-min Rain = 0
KGDS 150700Z 19003KT 18/15 A2989 RMK A01 T01780152  RH  087%=      5-min Rain = 0
KGDS 150705Z 20003KT 18/15 A299 RMK A01 T01780152  RH  087%=      5-min Rain = 0
KGDS 150710Z 19003KT 18/15 A2989 RMK A01 T01780152  RH  087%=      5-min Rain = 0
KGDS 150715Z 18004KT 18/15 A2989 RMK A01 T01770150  RH  086%=      5-min Rain = 0
KGDS 150720Z 19003KT 18/15 A2989 RMK A01 T01780150  RH  085%=      5-min Rain = 0
KGDS 150725Z 17002KT 18/15 A2988 RMK A01 T01780150  RH  085%=      5-min Rain = 0
KGDS 150730Z 20002KT 18/15 A2988 RMK A01 T01780149  RH  085%=      5-min Rain = 0
KGDS 150735Z 18002KT 18/15 A2988 RMK A01 T01780150  RH  085%=      5-min Rain = 0
KGDS 150740Z 17002KT 18/15 A2987 RMK A01 T01780149  RH  085%=      5-min Rain = 0
KGDS 150745Z 18002KT 18/15 A2987 RMK A01 T01780150  RH  085%=      5-min Rain = 0
KGDS 150750Z 12003KT 18/15 A2986 RMK A01 T01780149  RH  085%=      5-min Rain = 0
KGDS 150755Z 11002KT 18/15 A2986 RMK A01 T01770148  RH  085%=      5-min Rain = 0
KGDS 150800Z 08001KT 18/15 A2986 RMK A01 T01760148  RH  085%=      5-min Rain = 0
KGDS 150805Z 06002KT 18/15 A2986 RMK A01 T01750148  RH  086%=      5-min Rain = 0
KGDS 150810Z 06002KT 17/15 A2986 RMK A01 T01740147  RH  086%=      5-min Rain = 0
KGDS 150815Z 11002KT 17/15 A2986 RMK A01 T01720145  RH  086%=      5-min Rain = 0
KGDS 150820Z 14003KT 17/15 A2986 RMK A01 T01720147  RH  087%=      5-min Rain = 0
KGDS 150825Z 16003KT 18/15 A2986 RMK A01 T01750149  RH  086%=      5-min Rain = 0
KGDS 150830Z 18003KT 18/15 A2987 RMK A01 T01770150  RH  086%=      5-min Rain = 0
KGDS 150835Z 23005KT 18/15 A2988 RMK A01 T01770150  RH  086%=      5-min Rain = 0
KGDS 150840Z 23005KT 18/15 A2988 RMK A01 T01750149  RH  087%=      5-min Rain = 0
KGDS 150845Z 23005KT 17/15 A2988 RMK A01 T01740148  RH  087%=      5-min Rain = 0
KGDS 150850Z 23005KT 17/15 A2988 RMK A01 T01730148  RH  087%=      5-min Rain = 0
KGDS 150855Z 22004KT 17/15 A2987 RMK A01 T01720148  RH  088%=      5-min Rain = 0
KGDS 150900Z 22004KT 17/15 A2987 RMK A01 T01720148  RH  088%=      5-min Rain = 0
KGDS 150905Z 22004KT 17/15 A2987 RMK A01 T01710148  RH  088%=      5-min Rain = 0
KGDS 150910Z 23004KT 17/15 A2987 RMK A01 T01720149  RH  088%=      5-min Rain = 0
KGDS 150915Z 25002KT 17/15 A2988 RMK A01 T01730148  RH  087%=      5-min Rain = 0
KGDS 150920Z 25001KT 17/15 A2988 RMK A01 T01730148  RH  087%=      5-min Rain = 0
KGDS 150925Z 17000KT 17/15 A2987 RMK A01 T01730149  RH  087%=      5-min Rain = 0
KGDS 150930Z 35001KT 17/15 A2987 RMK A01 T01730147  RH  087%=      5-min Rain = 0
KGDS 150935Z 00002KT 17/14 A2988 RMK A01 T01680143  RH  087%=      5-min Rain = 0
KGDS 150940Z 04004KT 17/14 A2988 RMK A01 T01650142  RH  088%=      5-min Rain = 0
KGDS 150945Z 02005KT 16/14 A2988 RMK A01 T01630141  RH  089%=      5-min Rain = 0
KGDS 150950Z 04004KT 16/14 A2988 RMK A01 T01610140  RH  089%=      5-min Rain = 0
KGDS 150955Z 04004KT 16/14 A2988 RMK A01 T01630143  RH  090%=      5-min Rain = 0
KGDS 151000Z 03005KT 16/14 A2988 RMK A01 T01630143  RH  090%=      5-min Rain = 0
KGDS 151005Z 03008KT 16/14 A2989 RMK A01 T01610142  RH  090%=      5-min Rain = 0
KGDS 151010Z 02011KT 16/14 A299 RMK A01 T01610144  RH  091%=      5-min Rain = 0
KGDS 151015Z 03011KT 17/15 A2991 RMK A01 T01650147  RH  091%=      5-min Rain = 0
KGDS 151020Z 03010KT 17/15 A2991 RMK A01 T01680148  RH  090%=      5-min Rain = 0
KGDS 151025Z 03008KT 17/15 A2991 RMK A01 T01680149  RH  090%=      5-min Rain = 0
KGDS 151030Z 04008KT 17/15 A2991 RMK A01 T01690149  RH  090%=      5-min Rain = 0
KGDS 151035Z 03009KT 17/15 A2991 RMK A01 T01690149  RH  090%=      5-min Rain = 0
KGDS 151040Z 03010KT 17/15 A2991 RMK A01 T01690150  RH  090%=      5-min Rain = 0
KGDS 151045Z 03008KT 17/15 A2991 RMK A01 T01700150  RH  090%=      5-min Rain = 0
KGDS 151050Z 04009KT 17/15 A2991 RMK A01 T01690150  RH  090%=      5-min Rain = 0
KGDS 151055Z 04008KT 17/15 A2991 RMK A01 T01690150  RH  090%=      5-min Rain = 0
KGDS 151100Z 05007KT 17/15 A2991 RMK A01 T01700151  RH  091%=      5-min Rain = 0
KGDS 151105Z 05009KT 17/15 A2991 RMK A01 T01700151  RH  091%=      5-min Rain = 0
KGDS 151110Z 05009KT 17/15 A2991 RMK A01 T01700151  RH  091%=      5-min Rain = 0
KGDS 151115Z 06007KT 17/15 A2991 RMK A01 T01690152  RH  091%=      5-min Rain = 0
KGDS 151120Z 06007KT 17/15 A299 RMK A01 T01690151  RH  091%=      5-min Rain = 0
KGDS 151125Z 05009KT 17/15 A2991 RMK A01 T01690151  RH  091%=      5-min Rain = 0
KGDS 151130Z 05009KT 17/15 A2991 RMK A01 T01680151  RH  092%=      5-min Rain = 0
KGDS 151135Z 07008KT 17/15 A2991 RMK A01 T01680151  RH  092%=      5-min Rain = 0
KGDS 151140Z 09007KT 17/15 A2991 RMK A01 T01680151  RH  092%=      5-min Rain = 0
KGDS 151145Z 09007KT 17/15 A2991 RMK A01 T01680152  RH  092%=      5-min Rain = 0
KGDS 151150Z 07007KT 17/15 A2992 RMK A01 T01690153  RH  092%=      5-min Rain = 0
KGDS 151155Z 06006KT 17/15 A2992 RMK A01 T01690154  RH  093%=      5-min Rain = 0
KGDS 151200Z 07005KT 17/15 A2993 RMK A01 T01690154  RH  093%=      5-min Rain = 0
KGDS 151205Z 08005KT 17/16 A2993 RMK A01 T01700155  RH  093%=      5-min Rain = 0
KGDS 151210Z 08006KT 17/16 A2994 RMK A01 T01730158  RH  093%=      5-min Rain = 0
KGDS 151215Z 08005KT 18/16 A2994 RMK A01 T01750161  RH  093%=      5-min Rain = 0
KGDS 151220Z 10005KT 18/16 A2994 RMK A01 T01770162  RH  093%=      5-min Rain = 0
KGDS 151225Z 09005KT 18/16 A2994 RMK A01 T01800164  RH  093%=      5-min Rain = 0
KGDS 151230Z 07006KT 18/17 A2994 RMK A01 T01810165  RH  092%=      5-min Rain = 0
KGDS 151235Z 07006KT 18/17 A2994 RMK A01 T01830167  RH  092%=      5-min Rain = 0
KGDS 151240Z 08005KT 18/17 A2994 RMK A01 T01840167  RH  092%=      5-min Rain = 0
KGDS 151245Z 10005KT 19/17 A2995 RMK A01 T01850169  RH  092%=      5-min Rain = 0
KGDS 151250Z 09007KT 19/17 A2995 RMK A01 T01870170  RH  092%=      5-min Rain = 0
KGDS 151255Z 09006KT 19/17 A2995 RMK A01 T01880171  RH  092%=      5-min Rain = 0
KGDS 151300Z 09005KT 19/17 A2996 RMK A01 T01890172  RH  092%=      5-min Rain = 0
KGDS 151305Z 09004KT 19/17 A2996 RMK A01 T01900173  RH  092%=      5-min Rain = 0
KGDS 151310Z 09005KT 19/18 A2996 RMK A01 T01920175  RH  092%=      5-min Rain = 0
KGDS 151315Z 09005KT 19/18 A2996 RMK A01 T01930176  RH  092%=      5-min Rain = 0
KGDS 151320Z 10006KT 19/18 A2996 RMK A01 T01940177  RH  092%=      5-min Rain = 0
KGDS 151325Z 11007KT 20/18 A2996 RMK A01 T01960178  RH  092%=      5-min Rain = 0
KGDS 151330Z 11008KT 20/18 A2996 RMK A01 T01970178  RH  091%=      5-min Rain = 0
KGDS 151335Z 11007KT 20/18 A2997 RMK A01 T01970178  RH  091%=      5-min Rain = 0
KGDS 151340Z 11006KT 20/18 A2997 RMK A01 T01970178  RH  091%=      5-min Rain = 0
KGDS 151345Z 11006KT 20/18 A2997 RMK A01 T01980179  RH  091%=      5-min Rain = 0
KGDS 151350Z 10006KT 20/18 A2998 RMK A01 T01980179  RH  091%=      5-min Rain = 0
KGDS 151355Z 10004KT 20/18 A2998 RMK A01 T01990180  RH  091%=      5-min Rain = 0
KGDS 151400Z 08004KT 20/18 A2998 RMK A01 T01990180  RH  091%=      5-min Rain = 0
KGDS 151405Z 06004KT 20/18 A2998 RMK A01 T02000180  RH  090%=      5-min Rain = 0
KGDS 151410Z 07004KT 20/18 A2998 RMK A01 T02000180  RH  090%=      5-min Rain = 0
KGDS 151415Z 07004KT 20/18 A2998 RMK A01 T02020181  RH  090%=      5-min Rain = 0
KGDS 151420Z 06004KT 20/18 A2999 RMK A01 T02020181  RH  090%=      5-min Rain = 0
KGDS 151425Z 04004KT 20/18 A2999 RMK A01 T02030181  RH  090%=      5-min Rain = 0
KGDS 151430Z 06004KT 20/18 A2999 RMK A01 T02040181  RH  089%=      5-min Rain = 0
KGDS 151435Z 07003KT 20/18 A2999 RMK A01 T02040181  RH  089%=      5-min Rain = 0
KGDS 151440Z 09003KT 21/18 A2999 RMK A01 T02060183  RH  089%=      5-min Rain = 0
KGDS 151445Z 09004KT 21/18 A2998 RMK A01 T02070184  RH  089%=      5-min Rain = 0
KGDS 151450Z 11004KT 21/18 A2999 RMK A01 T02090184  RH  088%=      5-min Rain = 0
KGDS 151455Z 11004KT 21/18 A2999 RMK A01 T02100184  RH  087%=      5-min Rain = 0
KGDS 151500Z 12004KT 21/19 A2999 RMK A01 T02130185  RH  087%=      5-min Rain = 0
KGDS 151505Z 14003KT 22/19 A2999 RMK A01 T02170187  RH  085%=      5-min Rain = 0
KGDS 151510Z 13004KT 22/19 A2999 RMK A01 T02190186  RH  083%=      5-min Rain = 0
KGDS 151515Z 13004KT 22/19 A2999 RMK A01 T02200187  RH  084%=      5-min Rain = 0
KGDS 151520Z 14004KT 22/19 A2999 RMK A01 T02230188  RH  083%=      5-min Rain = 0
KGDS 151525Z 14004KT 23/19 A2999 RMK A01 T02280190  RH  081%=      5-min Rain = 0
KGDS 151530Z 13004KT 23/19 A2999 RMK A01 T02290188  RH  080%=      5-min Rain = 0
KGDS 151535Z 12004KT 23/19 A2999 RMK A01 T02320190  RH  079%=      5-min Rain = 0
KGDS 151540Z 12005KT 24/19 A2999 RMK A01 T02390190  RH  076%=      5-min Rain = 0
KGDS 151545Z 13006KT 24/19 A2998 RMK A01 T02390189  RH  075%=      5-min Rain = 0
KGDS 151550Z 13006KT 24/19 A2999 RMK A01 T02410189  RH  075%=      5-min Rain = 0
KGDS 151555Z 12006KT 25/19 A2999 RMK A01 T02460191  RH  073%=      5-min Rain = 0
KGDS 151600Z 12007KT 25/19 A2998 RMK A01 T02500188  RH  070%=      5-min Rain = 0
KGDS 151605Z 13008KT 25/19 A2998 RMK A01 T02540186  RH  068%=      5-min Rain = 0
KGDS 151610Z 14007KT 26/19 A2998 RMK A01 T02590186  RH  066%=      5-min Rain = 0
KGDS 151615Z 13008KT 26/19 A2998 RMK A01 T02610185  RH  065%=      5-min Rain = 0
KGDS 151620Z 13007KT 26/18 A2998 RMK A01 T02620180  RH  062%=      5-min Rain = 0
KGDS 151625Z 14007KT 27/18 A2997 RMK A01 T02650181  RH  061%=      5-min Rain = 0
KGDS 151630Z 13008KT 27/18 A2997 RMK A01 T02690175  RH  058%=      5-min Rain = 0
KGDS 151635Z 14008KT 27/17 A2997 RMK A01 T02720165  RH  053%=      5-min Rain = 0
KGDS 151640Z 13008KT 27/17 A2997 RMK A01 T02720167  RH  054%=      5-min Rain = 0
KGDS 151645Z 14008KT 27/17 A2997 RMK A01 T02740168  RH  053%=      5-min Rain = 0
KGDS 151650Z 14008KT 28/17 A2998 RMK A01 T02790167  RH  052%=      5-min Rain = 0
KGDS 151655Z 13008KT 28/16 A2998 RMK A01 T02790163  RH  051%=      5-min Rain = 0
KGDS 151700Z 15006G11KT 28/16 A2998 RMK A01 T02790163  RH  051%=      5-min Rain = 0
KGDS 151705Z 11007KT 28/16 A2998 RMK A01 T02820162  RH  049%=      5-min Rain = 0
KGDS 151710Z 13007KT 28/16 A2997 RMK A01 T02820162  RH  049%=      5-min Rain = 0
KGDS 151715Z 12007KT 29/16 A2997 RMK A01 T02850160  RH  048%=      5-min Rain = 0
KGDS 151720Z 11007KT 28/16 A2997 RMK A01 T02840159  RH  048%=      5-min Rain = 0
KGDS 151725Z 11006G11KT 29/16 A2997 RMK A01 T02860159  RH  047%=      5-min Rain = 0
KGDS 151730Z 08007G12KT 29/16 A2997 RMK A01 T02890157  RH  046%=      5-min Rain = 0
KGDS 151735Z 04006KT 29/15 A2997 RMK A01 T02860154  RH  046%=      5-min Rain = 0
KGDS 151740Z 10003G10KT 29/16 A2997 RMK A01 T02850155  RH  046%=      5-min Rain = 0
KGDS 151745Z 13006KT 29/16 A2997 RMK A01 T02850155  RH  046%=      5-min Rain = 0
KGDS 151750Z 06007KT 28/15 A2997 RMK A01 T02820154  RH  047%=      5-min Rain = 0
KGDS 151755Z 05007KT 28/15 A2998 RMK A01 T02810153  RH  047%=      5-min Rain = 0
KGDS 151800Z 08004KT 28/15 A2998 RMK A01 T02820151  RH  046%=      5-min Rain = 0
KGDS 151805Z 10005KT 28/15 A2998 RMK A01 T02830152  RH  046%=      5-min Rain = 0
KGDS 151810Z 09003KT 29/15 A2997 RMK A01 T02850151  RH  045%=      5-min Rain = 0
KGDS 151815Z 08006KT 29/16 A2997 RMK A01 T02900155  RH  045%=      5-min Rain = 0
KGDS 151820Z 08005KT 30/15 A2997 RMK A01 T02960153  RH  043%=      5-min Rain = 0
KGDS 151825Z 09003KT 30/15 A2997 RMK A01 T02970152  RH  042%=      5-min Rain = 0
KGDS 151830Z 07007KT 29/15 A2997 RMK A01 T02910152  RH  044%=      5-min Rain = 0
KGDS 151835Z 07007G14KT 29/15 A2997 RMK A01 T02910152  RH  044%=      5-min Rain = 0
KGDS 151840Z 11009KT 29/15 A2997 RMK A01 T02910154  RH  044%=      5-min Rain = 0
KGDS 151845Z 06008G17KT 30/17 A2997 RMK A01 T02990167  RH  046%=      5-min Rain = 0
KGDS 151850Z 04013G19KT 28/18 A2997 RMK A01 T02840180  RH  055%=      5-min Rain = 0
KGDS 151855Z 02015G21KT 28/18 A2997 RMK A01 T02790182  RH  057%=      5-min Rain = 0
KGDS 151900Z 04015G20KT 28/18 A2996 RMK A01 T02840183  RH  056%=      5-min Rain = 0
KGDS 151905Z 05014G19KT 29/18 A2996 RMK A01 T02860180  RH  054%=      5-min Rain = 0
KGDS 151910Z 04014G20KT 29/18 A2996 RMK A01 T02870180  RH  054%=      5-min Rain = 0
KGDS 151915Z 04014KT 29/18 A2996 RMK A01 T02860179  RH  054%=      5-min Rain = 0
KGDS 151920Z 03013G18KT 29/18 A2996 RMK A01 T02900179  RH  052%=      5-min Rain = 0
KGDS 151925Z 03011G16KT 29/18 A2996 RMK A01 T02900177  RH  052%=      5-min Rain = 0
KGDS 151930Z 05012KT 29/17 A2996 RMK A01 T02930174  RH  050%=      5-min Rain = 0
KGDS 151935Z 03009KT 29/17 A2996 RMK A01 T02900173  RH  050%=      5-min Rain = 0
KGDS 151940Z 03010KT 29/17 A2996 RMK A01 T02900173  RH  050%=      5-min Rain = 0
KGDS 151945Z 04010G18KT 30/18 A2995 RMK A01 T02980175  RH  049%=      5-min Rain = 0
KGDS 151950Z 02011KT 30/17 A2995 RMK A01 T02960174  RH  049%=      5-min Rain = 0
KGDS 151955Z 04009G15KT 30/17 A2995 RMK A01 T02980169  RH  047%=      5-min Rain = 0
KGDS 152000Z 02009KT 30/17 A2995 RMK A01 T02960172  RH  049%=      5-min Rain = 0
KGDS 152005Z 04007G12KT 30/17 A2994 RMK A01 T02950170  RH  048%=      5-min Rain = 0
KGDS 152010Z 08007G12KT 29/17 A2994 RMK A01 T02930166  RH  047%=      5-min Rain = 0
KGDS 152015Z 05006G13KT 30/17 A2994 RMK A01 T03000168  RH  046%=      5-min Rain = 0
KGDS 152020Z 04007G12KT 30/16 A2994 RMK A01 T03040163  RH  044%=      5-min Rain = 0
KGDS 152025Z 02007KT 30/17 A2994 RMK A01 T03030166  RH  045%=      5-min Rain = 0
KGDS 152030Z 05009KT 30/17 A2993 RMK A01 T03030165  RH  044%=      5-min Rain = 0
KGDS 152035Z 04008G15KT 31/17 A2993 RMK A01 T03050166  RH  044%=      5-min Rain = 0
KGDS 152040Z 03011G16KT 31/16 A2993 RMK A01 T03080164  RH  043%=      5-min Rain = 0
KGDS 152045Z 07009KT 30/16 A2993 RMK A01 T03020161  RH  044%=      5-min Rain = 0
KGDS 152050Z 08006KT 30/16 A2992 RMK A01 T03020159  RH  043%=      5-min Rain = 0
KGDS 152055Z 09006G13KT 31/16 A2992 RMK A01 T03060160  RH  042%=      5-min Rain = 0
KGDS 152100Z 07006G12KT 31/16 A2992 RMK A01 T03110158  RH  041%=      5-min Rain = 0
KGDS 152105Z 05003G8KT 31/16 A2992 RMK A01 T03070157  RH  041%=      5-min Rain = 0
KGDS 152110Z 06006G12KT 31/16 A2991 RMK A01 T03130158  RH  040%=      5-min Rain = 0
KGDS 152115Z 05010KT 32/16 A2991 RMK A01 T03150158  RH  040%=      5-min Rain = 0
KGDS 152120Z 05006KT 31/16 A2991 RMK A01 T03090163  RH  042%=      5-min Rain = 0
KGDS 152125Z 11004G9KT 31/16 A2991 RMK A01 T03110160  RH  041%=      5-min Rain = 0
KGDS 152130Z 06004G9KT 31/16 A2991 RMK A01 T03130157  RH  040%=      5-min Rain = 0
KGDS 152135Z 06003G10KT 32/16 A299 RMK A01 T03150157  RH  039%=      5-min Rain = 0
KGDS 152140Z 08005KT 31/16 A299 RMK A01 T03130156  RH  040%=      5-min Rain = 0
KGDS 152145Z 03011KT 31/17 A299 RMK A01 T03100174  RH  045%=      5-min Rain = 0
KGDS 152150Z 05014KT 31/18 A2989 RMK A01 T03090182  RH  048%=      5-min Rain = 0
KGDS 152155Z 05012KT 30/18 A2989 RMK A01 T02980181  RH  051%=      5-min Rain = 0
KGDS 152200Z 05013KT 30/18 A2989 RMK A01 T02950183  RH  052%=      5-min Rain = 0
KGDS 152205Z 07013G18KT 30/18 A2989 RMK A01 T03040182  RH  049%=      5-min Rain = 0
KGDS 152210Z 07013KT 31/18 A2989 RMK A01 T03060180  RH  048%=      5-min Rain = 0
KGDS 152215Z 08012KT 31/18 A2988 RMK A01 T03070180  RH  048%=      5-min Rain = 0
KGDS 152220Z 07012KT 30/18 A2988 RMK A01 T03030178  RH  048%=      5-min Rain = 0
KGDS 152225Z 08010KT 31/18 A2988 RMK A01 T03060178  RH  048%=      5-min Rain = 0
KGDS 152230Z 07012G20KT 31/18 A2988 RMK A01 T03100180  RH  047%=      5-min Rain = 0
KGDS 152235Z 06013KT 31/18 A2988 RMK A01 T03050180  RH  049%=      5-min Rain = 0
KGDS 152240Z 06014KT 30/18 A2988 RMK A01 T03030181  RH  049%=      5-min Rain = 0
KGDS 152245Z 07013KT 30/18 A2988 RMK A01 T03040179  RH  048%=      5-min Rain = 0
KGDS 152250Z 07010G15KT 30/18 A2988 RMK A01 T03040181  RH  049%=      5-min Rain = 0
KGDS 152255Z 06011G16KT 31/18 A2988 RMK A01 T03060180  RH  048%=      5-min Rain = 0
KGDS 152300Z 05014G20KT 30/18 A2988 RMK A01 T03020183  RH  050%=      5-min Rain = 0
KGDS 152305Z 07014KT 30/18 A2987 RMK A01 T03010184  RH  051%=      5-min Rain = 0
KGDS 152310Z 07013G18KT 30/18 A2987 RMK A01 T02990181  RH  051%=      5-min Rain = 0
KGDS 152315Z 07013KT 30/18 A2987 RMK A01 T02960182  RH  052%=      5-min Rain = 0
KGDS 152320Z 07015KT 30/18 A2987 RMK A01 T02960184  RH  052%=      5-min Rain = 0
KGDS 152325Z 08014G19KT 30/18 A2987 RMK A01 T02980184  RH  052%=      5-min Rain = 0
KGDS 152330Z 08014KT 29/18 A2987 RMK A01 T02920183  RH  053%=      5-min Rain = 0
KGDS 152335Z 08013KT 29/19 A2987 RMK A01 T02890185  RH  055%=      5-min Rain = 0
KGDS 152340Z 09015KT 29/19 A2988 RMK A01 T02890185  RH  055%=      5-min Rain = 0
KGDS 152345Z 09015KT 29/18 A2988 RMK A01 T02890184  RH  055%=      5-min Rain = 0
KGDS 152350Z 08015KT 29/19 A2988 RMK A01 T02880186  RH  056%=      5-min Rain = 0
KGDS 152355Z 08015KT 29/19 A2988 RMK A01 T02870187  RH  056%=      5-min Rain = 0
KGDS 160000Z 10014KT 29/19 A2988 RMK A01 T02860186  RH  056%=      5-min Rain = 0
KGDS 160005Z 08014G19KT 29/19 A2987 RMK A01 T02850186  RH  056%=      5-min Rain = 0
KGDS 160010Z 08016KT 29/19 A2987 RMK A01 T02850186  RH  057%=      5-min Rain = 0
KGDS 160015Z 08016KT 28/19 A2987 RMK A01 T02830185  RH  057%=      5-min Rain = 0
KGDS 160020Z 07016KT 28/19 A2987 RMK A01 T02820186  RH  057%=      5-min Rain = 0
KGDS 160025Z 08015KT 28/19 A2987 RMK A01 T02810186  RH  058%=      5-min Rain = 0
KGDS 160030Z 09015KT 28/19 A2988 RMK A01 T02780185  RH  058%=      5-min Rain = 0
KGDS 160035Z 08016KT 28/18 A2988 RMK A01 T02750184  RH  059%=      5-min Rain = 0
KGDS 160040Z 09014KT 27/18 A2988 RMK A01 T02740184  RH  059%=      5-min Rain = 0
KGDS 160045Z 10013KT 27/18 A2988 RMK A01 T02730183  RH  059%=      5-min Rain = 0
KGDS 160050Z 09015KT 27/18 A2988 RMK A01 T02720181  RH  059%=      5-min Rain = 0
KGDS 160055Z 09016KT 27/18 A2988 RMK A01 T02710180  RH  059%=      5-min Rain = 0
KGDS 160100Z 09016KT 27/18 A2987 RMK A01 T02710180  RH  059%=      5-min Rain = 0
KGDS 160105Z 10015KT 27/18 A2987 RMK A01 T02690178  RH  059%=      5-min Rain = 0
KGDS 160110Z 09015KT 27/18 A2987 RMK A01 T02670177  RH  059%=      5-min Rain = 0
KGDS 160115Z 09014KT 27/18 A2988 RMK A01 T02650175  RH  059%=      5-min Rain = 0
KGDS 160120Z 09013KT 26/17 A2988 RMK A01 T02640173  RH  059%=      5-min Rain = 0
KGDS 160125Z 09014KT 26/17 A2989 RMK A01 T02620172  RH  059%=      5-min Rain = 0
KGDS 160130Z 09012KT 26/17 A2989 RMK A01 T02610171  RH  059%=      5-min Rain = 0
KGDS 160135Z 09015KT 26/17 A2989 RMK A01 T02600170  RH  059%=      5-min Rain = 0
KGDS 160140Z 09013G18KT 26/17 A2989 RMK A01 T02590169  RH  059%=      5-min Rain = 0
KGDS 160145Z 10016KT 26/17 A2989 RMK A01 T02580170  RH  060%=      5-min Rain = 0
KGDS 160150Z 09014KT 26/17 A2989 RMK A01 T02580171  RH  060%=      5-min Rain = 0
KGDS 160155Z 09012G17KT 26/17 A2989 RMK A01 T02570173  RH  061%=      5-min Rain = 0
KGDS 160200Z 09013G18KT 26/18 A299 RMK A01 T02560175  RH  062%=      5-min Rain = 0
KGDS 160205Z 09014KT 26/18 A299 RMK A01 T02550178  RH  064%=      5-min Rain = 0
KGDS 160210Z 10014G19KT 26/18 A2991 RMK A01 T02550180  RH  065%=      5-min Rain = 0
KGDS 160215Z 10015KT 25/18 A2992 RMK A01 T02540183  RH  066%=      5-min Rain = 0
KGDS 160220Z 10013KT 25/18 A2993 RMK A01 T02530184  RH  067%=      5-min Rain = 0
KGDS 160225Z 11012KT 25/19 A2993 RMK A01 T02530185  RH  068%=      5-min Rain = 0
KGDS 160230Z 10012KT 25/19 A2993 RMK A01 T02520185  RH  068%=      5-min Rain = 0
KGDS 160235Z 11013KT 25/18 A2993 RMK A01 T02510184  RH  068%=      5-min Rain = 0
KGDS 160240Z 11012KT 25/18 A2993 RMK A01 T02500184  RH  068%=      5-min Rain = 0
KGDS 160245Z 10012KT 25/18 A2993 RMK A01 T02490183  RH  068%=      5-min Rain = 0
KGDS 160250Z 10014KT 25/18 A2992 RMK A01 T02480182  RH  068%=      5-min Rain = 0
KGDS 160255Z 10013KT 25/18 A2991 RMK A01 T02470181  RH  069%=      5-min Rain = 0
KGDS 160300Z 11012KT 25/18 A2991 RMK A01 T02460181  RH  069%=      5-min Rain = 0
KGDS 160305Z 12013KT 25/18 A299 RMK A01 T02450181  RH  069%=      5-min Rain = 0
KGDS 160310Z 12015KT 24/18 A299 RMK A01 T02440180  RH  069%=      5-min Rain = 0
KGDS 160315Z 13012G18KT 24/18 A2992 RMK A01 T02440180  RH  069%=      5-min Rain = 0
KGDS 160320Z 15009KT 25/18 A2995 RMK A01 T02450180  RH  069%=      5-min Rain = 0
KGDS 160325Z 19011KT 25/18 A2997 RMK A01 T02450181  RH  069%=      5-min Rain = 0
KGDS 160330Z 22015KT 24/18 A2997 RMK A01 T02410184  RH  072%=      5-min Rain = 0
KGDS 160335Z 27019G26KT 21/16 A2998 RMK A01 T02140161  RH  073%=      5-min Rain = 0
KGDS 160340Z 30018KT 19/16 A2999 RMK A01 T01920158  RH  083%=      5-min Rain = 0.02
KGDS 160345Z 32014G19KT 19/16 A2999 RMK A01 T01880157  RH  084%=      5-min Rain = 0.01
KGDS 160350Z 35008G15KT 19/16 A2999 RMK A01 T01860159  RH  086%=      5-min Rain = 0.02
KGDS 160355Z 01009G24KT 19/16 A30 RMK A01 T01860161  RH  087%=      5-min Rain = 0.01
KGDS 160400Z 28022G32KT 19/16 A3007 RMK A01 T01910158  RH  083%=      5-min Rain = 0.01
KGDS 160405Z 28022G32KT 19/16 A3008 RMK A01 T01940155  RH  080%=      5-min Rain = 0.03
KGDS 160410Z 28016G22KT 19/16 A3009 RMK A01 T01880157  RH  084%=      5-min Rain = 0.02
KGDS 160415Z 27013KT 19/16 A301 RMK A01 T01860156  RH  085%=      5-min Rain = 0
KGDS 160420Z 28009G15KT 19/15 A3009 RMK A01 T01850151  RH  082%=      5-min Rain = 0
KGDS 160425Z 17004G11KT 19/15 A3007 RMK A01 T01860150  RH  081%=      5-min Rain = 0.01
KGDS 160430Z 18015KT 19/15 A3003 RMK A01 T01860148  RH  081%=      5-min Rain = 0
KGDS 160435Z 18019KT 18/15 A30 RMK A01 T01840148  RH  082%=      5-min Rain = 0.01
KGDS 160440Z 19022G28KT 19/14 A2997 RMK A01 T01900138  RH  074%=      5-min Rain = 0
KGDS 160445Z 20022G28KT 19/14 A2995 RMK A01 T01930137  RH  072%=      5-min Rain = 0
KGDS 160450Z 19028G33KT 20/13 A2994 RMK A01 T01950134  RH  069%=      5-min Rain = 0
KGDS 160455Z 18024G31KT 20/14 A2994 RMK A01 T01950135  RH  070%=      5-min Rain = 0.01

Page generated in 0.0089 seconds.